Météo des aéroports (METAR) proches de Ticheville

 

LFRG - St Gatien, France
Distance from station: N 52km
Mise à jour: 11/12/2018 18:00
nuageux
nuageux
 Wind from ESE
Vent: ESE 7 km/h
Température: 5°C
Wind Chill: 3°C
Point de rosée: 3°C
Humidité: 87%
Baromètre: 1023 hPa
Clouds: nuageux
Visibility: 10 km
Cloud details: nuageux 792 m
2018/12/11 17:00 LFRG 111700Z AUTO 11004KT 9999 BKN026 05/03 Q1023 NOSIG
LFRK - Caen/Carpiquet(A, France
Distance from station: ONO 60km
Mise à jour: 11/12/2018 18:00
nuageux
nuageux
 Wind from SE
Vent: SE 9 km/h
Température: 6°C
Wind Chill: 4°C
Point de rosée: 4°C
Humidité: 87%
Baromètre: 1023 hPa
Clouds: nuageux
Visibility: 10 km
Cloud details: nuageux 792 m
2018/12/11 17:00 LFRK 111700Z AUTO 14005KT 9999 BKN026 06/04 Q1023 NOSIG
 
LFOH - Le Havre/Octevil, France
Distance from station: NNO 69km
Mise à jour: 11/12/2018 18:00
clair
clair
 Wind from ESE
Vent: ESE 7 km/h
Température: 7°C
Wind Chill: 6°C
Point de rosée: 4°C
Humidité: 81%
Baromètre: 1023 hPa
Résumé: clair
Visibility: greater than 10 km
2018/12/11 17:00 LFOH 111700Z AUTO 12004KT CAVOK 07/04 Q1023 NOSIG
LFOE - Evreux/Fauville, France
Distance from station: E 70km
Mise à jour: 11/12/2018 18:00
clair
clair
 Wind from E
Vent: E 6 km/h
Température: 5°C
Point de rosée: 4°C
Humidité: 93%
Baromètre: 1024 hPa
Résumé: clair
Visibility: greater than 10 km
2018/12/11 17:00 LFOE 111700Z AUTO 09003KT CAVOK 05/04 Q1024 BECMG BKN004
 
LFOP - Rouen/Boos (aut), France
Distance from station: NE 83km
Mise à jour: 11/12/2018 18:00
clair
clair
 Wind from ESE
Vent: ESE 6 km/h
Température: 3°C
Point de rosée: 2°C
Humidité: 93%
Baromètre: 1024 hPa
Résumé: clair
Visibility: greater than 10 km
2018/12/11 17:00 LFOP 111700Z AUTO 12003KT CAVOK 03/02 Q1024 NOSIG
LFRM - Le Mans/Arnage(A, France
Distance from station: S 107km
Mise à jour: 11/12/2018 18:00

 Wind from varies
Vent: varies 4 km/h
Visibility: 1 km
2018/12/11 17:00 LFRM 111700Z AUTO VRB02KT 0800 0750 FG VV/// 05/05 Q1024 TEMPO 0500 FG